Observations à ENGHIEN-REBECQ MAI 2004
Date RR Tx Tn Tm T6 PP U DD FF O C/L
1/05/2004 0,0 18,6 10,7 14,7 10,8 1000 97 O 0 5 SEC
2/05/2004 0,0 20,6 7,8 14,2 8,5 1007 93 SO 5 1 SEC
3/05/2004 0,0 20,1 7,8 14,0 8,5 1002 88 NE 0 1 SEC
4/05/2004 4,0 11,7 6,1 8,9 7,2 994 90 SO 0 8 SEC
5/05/2004 2,0 13,0 5,8 9,4 7,1 979 95 SO 10 8 SEC
6/05/2004 0,0 15,3 3,7 9,5 4,0 988 96 SO 0 0 SEC
7/05/2004 8,0 11,4 6,9 9,2 7,3 995 88 SO 0 8 SEC
8/05/2004 16,0 11,2 7,2 9,2 9,0 989 98 SO 5 8 PL
9/05/2004 0,0 15,6 8,6 12,1 9,0 999 96 SO 0 8 SEC
10/05/2004 0,0 19,5 8,7 14,1 9,0 1006 95 SO 0 8 hum
11/05/2004 0,0 12,6 8,7 10,7 9,9 1015 98 SO 0 9 sec
12/05/2004 0,0 14,2 8,1 11,2 8,3 1020 78 ESE 0 8 sec
13/05/2004 0,0 12,9 8,2 10,6 8,4 1018 75 SO 0 8 sec
14/05/2004 0,0 18,2 4,8 11,5 5,6 1023 91 SO 0 0 sec
15/05/2004 0,0 20,7 6,7 13,7 6,9 1028 92 S 0 0 sec
16/05/2004 0,0 21,0 8,8 14,9 9,0 1030 94 NE 0 0 sec
17/05/2004 0,0 24,5 10,1 17,3 10,5 1027 90 NE 0 0 sec
18/05/2004 0,0 23,4 10,5 17,0 11,8 1024 90 S 0 0 sec
19/05/2004 0,0 25,9 10,1 18,0 10,3 1024 89 O 0 0 sec
20/05/2004 0,0 22,4 10,3 16,4 10,7 1021 86 NE 0 0 sec
21/05/2004 3,0 16,9 8,5 12,7 9,6 1016 88 S 0 8 HUM
22/05/2004 1,0 15,2 4,5 9,9 5,4 1025 75 NE 0 0 SEC
23/05/2004 0,0 19,3 4,1 11,7 6,2 1027 93 SO 0 1 SEC
24/05/2004 0,0 14,3 4,7 9,5 6,5 1023 87 NE 0 0 SEC
25/05/2004 0,0 20,0 6,0 13,0 6,8 1023 98 NE 0 0 SEC
26/05/2004 0,0 18,5 7,7 13,1 8,6 1019 77 NE 6,5 2 SEC
27/05/2004 0,0 16,5 5,0 10,8 5,4 1022 86 NE 0 0 SEC
28/05/2004 0,0 20,9 5,6 13,3 6,0 1026 87 NE 0 0 SEC
29/05/2004 0,0 25,9 8,7 17,3 9,2 1025 62 NE 0 0 SEC
30/05/2004 3,0 16,5 12,1 14,3 12,2 1019 69 ESE 0 3 SEC
31/05/2004 8,0 17,5 9,6 13,6 9,8 1018 97 SO 0 8 SEC
Moyenne/Totaux 45,0 17,9 7,6 12,7 8,3 1013,9 88,3        
RR = précipitations   RR = précipitations    
Tx = Températures maximales   Tx = Températures maximales
Tn = Températures minimales   Tn = Températures minimales
T6 = Températures à 6 heures   T6 = Températures à 6 heures
PP = pression atmosphériques réduites au niveau de la mer  PP = pression atmosphériques réduites au niveau de la mer